Time;durP1;ratioP1;P1;durP2;ratioP2;P2;SDS_P1;SDS_P2;PMS_P1;PMS_P2;Temp;Humidity;BMP_temperature;BMP_pressure;BME280_temperature;BME280_humidity;BME280_pressure;Samples;Min_cycle;Max_cycle;Signal;HPM_P1;HPM_P2
2022/02/03 00:00:04;;;;;;;3.00;0.73;;;;;;;5.02;100.00;101138.16;4901316;29;20043;-71
2022/02/03 00:02:38;;;;;;;1.65;0.88;;;;;;;5.02;100.00;101136.28;4888193;29;20043;-72
2022/02/03 00:05:19;;;;;;;2.70;0.98;;;;;;;4.93;100.00;101140.00;4898992;29;20424;-70
2022/02/03 00:10:46;;;;;;;1.27;0.68;;;;;;;5.05;100.00;101135.66;4902547;29;20047;-71
2022/02/03 00:24:26;;;;;;;8.27;2.35;;;;;;;5.07;100.00;101146.06;4897704;29;20036;-72
2022/02/03 00:27:06;;;;;;;3.30;0.95;;;;;;;5.02;100.00;101141.63;4903866;29;20039;-70
2022/02/03 00:32:13;;;;;;;1.08;0.98;;;;;;;4.95;100.00;101137.81;4898105;29;20047;-72
2022/02/03 00:35:05;;;;;;;3.97;1.23;;;;;;;4.91;100.00;101134.97;4897792;29;20103;-72
2022/02/03 00:37:46;;;;;;;2.45;0.60;;;;;;;4.97;100.00;101133.75;4897565;29;20040;-70
2022/02/03 00:48:33;;;;;;;1.17;0.70;;;;;;;5.07;100.00;101114.03;4896860;29;20032;-72
2022/02/03 00:51:01;;;;;;;2.65;0.80;;;;;;;5.06;100.00;101126.56;4888818;29;20043;-73
2022/02/03 00:53:27;;;;;;;2.65;1.08;;;;;;;5.06;100.00;101117.78;4901134;29;20063;-72
2022/02/03 00:55:54;;;;;;;7.30;0.80;;;;;;;5.05;100.00;101124.22;4916867;29;20689;-70
2022/02/03 00:58:24;;;;;;;5.70;1.05;;;;;;;5.11;100.00;101107.75;4906256;29;20043;-72
2022/02/03 01:00:52;;;;;;;5.50;0.93;;;;;;;5.09;100.00;101103.84;4905490;29;20874;-72
2022/02/03 01:03:21;;;;;;;1.33;0.70;;;;;;;5.04;100.00;101109.28;4896526;29;20032;-71
2022/02/03 01:05:47;;;;;;;5.55;0.73;;;;;;;5.05;100.00;101098.28;4897978;29;20040;-71
2022/02/03 01:08:20;;;;;;;2.17;1.00;;;;;;;5.09;100.00;101096.59;4905083;29;20043;-71
2022/02/03 01:10:54;;;;;;;2.50;0.80;;;;;;;5.09;100.00;101093.16;4906014;29;20044;-71
2022/02/03 01:13:46;;;;;;;4.05;0.60;;;;;;;5.09;100.00;101093.16;4896633;29;20043;-70
2022/02/03 01:35:07;;;;;;;7.72;0.65;;;;;;;5.03;100.00;101086.38;4904182;29;20035;-71
2022/02/03 01:45:50;;;;;;;3.10;0.63;;;;;;;5.04;100.00;101074.59;4921091;29;20038;-72
2022/02/03 01:48:38;;;;;;;1.63;0.85;;;;;;;5.00;100.00;101062.97;4889547;29;20048;-72
2022/02/03 01:53:50;;;;;;;1.65;0.73;;;;;;;5.00;100.00;101058.41;4901345;29;20051;-72
2022/02/03 01:56:23;;;;;;;0.85;0.70;;;;;;;4.93;100.00;101041.28;4917459;29;20048;-72
2022/02/03 01:58:55;;;;;;;6.15;0.85;;;;;;;5.04;100.00;101045.25;4905413;29;20433;-73
2022/02/03 02:01:24;;;;;;;1.75;0.60;;;;;;;4.96;100.00;101037.97;4891938;29;20048;-69
2022/02/03 02:03:58;;;;;;;3.33;0.80;;;;;;;5.06;100.00;101038.50;4887551;29;20047;-71
2022/02/03 02:06:45;;;;;;;0.95;0.52;;;;;;;5.08;100.00;101032.84;4898161;29;20379;-71
2022/02/03 02:09:23;;;;;;;0.73;0.60;;;;;;;5.09;100.00;101029.88;4901159;29;20119;-73
2022/02/03 02:12:16;;;;;;;2.45;1.30;;;;;;;5.15;100.00;101031.31;4919662;29;20067;-72
2022/02/03 02:42:39;;;;;;;3.33;1.23;;;;;;;5.23;100.00;100995.84;4892322;29;20079;-71
2022/02/03 02:45:09;;;;;;;0.88;0.65;;;;;;;5.27;100.00;100993.34;4888666;29;20122;-73
2022/02/03 02:47:57;;;;;;;0.77;0.77;;;;;;;5.22;100.00;100986.28;4917627;29;20035;-71
2022/02/03 02:50:40;;;;;;;0.90;0.32;;;;;;;5.12;100.00;100981.22;4895934;29;20402;-70
2022/02/03 02:53:31;;;;;;;4.22;0.77;;;;;;;5.12;100.00;100985.78;4897421;29;20530;-70
2022/02/03 02:56:31;;;;;;;1.58;0.73;;;;;;;5.16;100.00;100979.53;4898078;29;20044;-71
2022/02/03 02:59:42;;;;;;;0.28;0.28;;;;;;;5.20;100.00;100975.13;4902698;29;20036;-74
2022/02/03 03:33:57;;;;;;;6.05;0.88;;;;;;;5.16;100.00;100928.00;4920409;29;20047;-70
2022/02/03 03:38:22;;;;;;;2.70;0.68;;;;;;;5.21;100.00;100934.00;4919448;29;20040;-70
2022/02/03 03:40:52;;;;;;;5.28;0.90;;;;;;;5.21;100.00;100928.66;4912526;29;20134;-69
2022/02/03 03:43:24;;;;;;;0.55;0.40;;;;;;;5.27;100.00;100927.41;4919638;29;20378;-69
2022/02/03 03:45:53;;;;;;;2.97;0.73;;;;;;;5.24;100.00;100914.69;4920830;29;20063;-70
2022/02/03 03:48:20;;;;;;;7.70;0.70;;;;;;;5.30;100.00;100918.75;4919625;29;20126;-72
2022/02/03 03:50:53;;;;;;;0.63;0.47;;;;;;;5.37;100.00;100920.97;4917960;29;20428;-72
2022/02/03 03:53:31;;;;;;;0.30;0.25;;;;;;;5.39;100.00;100905.44;4920895;29;20085;-69
2022/02/03 03:56:10;;;;;;;4.78;0.55;;;;;;;5.36;100.00;100911.41;4920901;29;20043;-70
2022/02/03 04:43:17;;;;;;;2.40;0.95;;;;;;;5.69;100.00;100885.00;4900732;29;20039;-70
2022/02/03 04:45:37;;;;;;;1.05;0.80;;;;;;;5.76;100.00;100890.66;4901142;29;20442;-70
2022/02/03 05:06:05;;;;;;;3.15;1.13;;;;;;;5.86;100.00;100863.63;4897818;29;20055;-70
2022/02/03 05:12:16;;;;;;;3.00;1.35;;;;;;;5.88;100.00;100861.44;4900191;29;20028;-72
2022/02/03 05:22:05;;;;;;;1.90;0.85;;;;;;;5.90;100.00;100841.31;4903494;29;20042;-70
2022/02/03 05:33:17;;;;;;;;;;;;;;;5.88;100.00;100832.03;4885645;29;20055;-71
2022/02/03 06:03:51;;;;;;;3.13;1.13;;;;;;;5.84;100.00;100799.03;4903691;29;20061;-70
2022/02/03 06:09:48;;;;;;;2.03;1.17;;;;;;;5.80;100.00;100790.84;4903970;29;20123;-70
2022/02/03 06:14:32;;;;;;;6.10;1.40;;;;;;;5.85;100.00;100787.25;4904477;29;20458;-70
2022/02/03 06:27:28;;;;;;;5.15;1.50;;;;;;;5.95;100.00;100787.69;4898215;29;20403;-70
2022/02/03 06:29:58;;;;;;;2.72;1.40;;;;;;;5.94;100.00;100782.66;4898915;29;20040;-70
2022/02/03 06:32:25;;;;;;;3.97;1.08;;;;;;;5.98;100.00;100776.34;4903489;29;20138;-70
2022/02/03 06:34:51;;;;;;;3.20;1.63;;;;;;;5.91;100.00;100772.59;4899187;29;20147;-70
2022/02/03 06:37:20;;;;;;;7.30;1.83;;;;;;;5.96;100.00;100769.78;4890322;29;20047;-71
2022/02/03 06:39:46;;;;;;;2.55;1.17;;;;;;;6.07;100.00;100770.97;4900826;29;20040;-71
2022/02/03 06:42:11;;;;;;;2.25;1.63;;;;;;;6.06;100.00;100775.53;4900693;29;20040;-70
2022/02/03 06:44:52;;;;;;;2.10;1.45;;;;;;;6.01;100.00;100765.03;4902730;29;20121;-69
2022/02/03 06:47:26;;;;;;;5.30;1.70;;;;;;;6.14;100.00;100772.03;4895282;29;20127;-71
2022/02/03 06:57:58;;;;;;;3.17;1.40;;;;;;;6.13;100.00;100745.63;4894645;29;20048;-72
2022/02/03 07:00:30;;;;;;;;;;;;;;;6.17;100.00;100749.22;4905012;29;20036;-72
2022/02/03 07:02:58;;;;;;;5.20;1.77;;;;;;;6.25;100.00;100748.41;4914208;29;20006;-71
2022/02/03 07:05:23;;;;;;;3.63;2.08;;;;;;;6.24;100.00;100749.50;4903313;29;20040;-70
2022/02/03 07:07:49;;;;;;;6.75;1.73;;;;;;;6.24;100.00;100742.25;4901005;29;20030;-69
2022/02/03 07:10:15;;;;;;;3.13;1.67;;;;;;;6.31;100.00;100734.50;4896177;29;20080;-71
2022/02/03 07:12:42;;;;;;;4.05;1.73;;;;;;;6.33;100.00;100734.97;4909922;29;20040;-73
2022/02/03 07:15:09;;;;;;;2.50;1.60;;;;;;;6.35;100.00;100729.28;4895343;29;20506;-72
2022/02/03 07:17:36;;;;;;;2.55;1.55;;;;;;;6.29;100.00;100726.03;4916180;29;20039;-70
2022/02/03 07:20:05;;;;;;;3.65;1.83;;;;;;;6.26;100.00;100731.25;4899560;29;20493;-71
2022/02/03 07:22:31;;;;;;;6.38;2.10;;;;;;;6.28;100.00;100724.47;4896074;29;20387;-70
2022/02/03 07:24:58;;;;;;;3.90;2.05;;;;;;;6.27;100.00;100728.25;4897087;29;20060;-70
2022/02/03 07:27:24;;;;;;;4.75;2.30;;;;;;;6.26;100.00;100721.34;4901534;29;20024;-71
2022/02/03 07:29:50;;;;;;;4.25;2.10;;;;;;;6.34;100.00;100723.19;4902342;29;20040;-70
2022/02/03 07:32:17;;;;;;;3.50;1.95;;;;;;;6.38;100.00;100724.09;4902886;29;20099;-70
2022/02/03 07:34:42;;;;;;;7.95;2.50;;;;;;;6.37;100.00;100727.06;4905348;29;20111;-70
2022/02/03 07:37:07;;;;;;;4.35;2.15;;;;;;;6.40;100.00;100713.06;4904121;29;20055;-70
2022/02/03 07:39:34;;;;;;;4.68;2.35;;;;;;;6.56;100.00;100719.41;4902451;29;20048;-70
2022/02/03 07:42:03;;;;;;;4.88;1.92;;;;;;;6.65;100.00;100709.44;4899742;29;20032;-72
2022/02/03 07:44:28;;;;;;;8.15;2.88;;;;;;;6.62;100.00;100707.38;4902741;29;20039;-71
2022/02/03 07:46:54;;;;;;;11.38;4.32;;;;;;;6.58;100.00;100711.81;4912035;29;20516;-70
2022/02/03 07:49:19;;;;;;;8.25;3.20;;;;;;;6.70;100.00;100705.75;4902498;29;20466;-70
2022/02/03 07:51:44;;;;;;;6.53;2.75;;;;;;;6.69;100.00;100709.56;4901524;29;20054;-70
2022/02/03 07:54:10;;;;;;;4.95;2.13;;;;;;;6.54;100.00;100710.94;4895851;29;20042;-70
2022/02/03 07:56:36;;;;;;;3.35;2.17;;;;;;;6.53;100.00;100714.72;4902435;29;20071;-70
2022/02/03 07:59:02;;;;;;;6.00;1.85;;;;;;;6.62;100.00;100710.06;4899777;29;20107;-70
2022/02/03 08:01:28;;;;;;;5.20;2.00;;;;;;;6.56;100.00;100711.41;4899890;29;20032;-71
2022/02/03 08:03:53;;;;;;;6.03;2.42;;;;;;;6.62;100.00;100701.28;4901167;29;20574;-71
2022/02/03 08:06:25;;;;;;;5.03;2.00;;;;;;;6.62;100.00;100710.06;4901725;29;20036;-70
2022/02/03 08:09:04;;;;;;;2.70;1.63;;;;;;;6.60;100.00;100711.53;4900906;29;20385;-71
2022/02/03 08:11:35;;;;;;;3.13;1.90;;;;;;;6.62;100.00;100703.94;4899738;29;20048;-71
2022/02/03 08:14:10;;;;;;;5.07;2.33;;;;;;;6.69;100.00;100701.53;4900072;29;20114;-70
2022/02/03 08:16:41;;;;;;;3.00;2.03;;;;;;;6.69;100.00;100705.00;4900309;29;20075;-72
2022/02/03 08:19:22;;;;;;;3.33;1.92;;;;;;;6.62;100.00;100706.63;4901705;29;20556;-72
2022/02/03 08:21:56;;;;;;;3.80;1.73;;;;;;;6.62;100.00;100702.03;4895405;29;20051;-71
2022/02/03 08:24:26;;;;;;;4.65;2.17;;;;;;;6.73;100.00;100710.47;4895428;29;20043;-71
2022/02/03 08:27:04;;;;;;;3.17;1.73;;;;;;;6.73;100.00;100702.44;4900662;29;20035;-71
2022/02/03 08:29:50;;;;;;;4.38;2.25;;;;;;;6.77;100.00;100706.03;4914682;29;20044;-71
2022/02/03 08:32:20;;;;;;;3.58;1.65;;;;;;;6.74;100.00;100702.09;4897709;29;20557;-70
2022/02/03 08:34:58;;;;;;;3.95;1.90;;;;;;;6.87;100.00;100703.72;4907509;29;20036;-71
2022/02/03 08:37:41;;;;;;;3.55;1.80;;;;;;;6.87;100.00;100695.69;4901850;29;20044;-71
2022/02/03 08:40:11;;;;;;;2.70;1.63;;;;;;;6.83;100.00;100692.09;4899704;29;20904;-71
2022/02/03 08:42:37;;;;;;;2.83;1.65;;;;;;;6.92;100.00;100692.81;4916204;29;20500;-71
2022/02/03 08:45:02;;;;;;;3.35;1.83;;;;;;;6.86;100.00;100686.13;4902694;29;20048;-70
2022/02/03 08:47:28;;;;;;;3.38;1.92;;;;;;;6.92;100.00;100690.16;4901474;29;20028;-71
2022/02/03 08:49:53;;;;;;;3.00;1.85;;;;;;;6.88;100.00;100686.56;4901458;29;20115;-70
2022/02/03 08:52:22;;;;;;;2.22;1.75;;;;;;;6.94;100.00;100682.56;4901099;29;20062;-71
2022/02/03 09:41:11;;;;;;;7.53;2.58;;;;;;;7.51;100.00;100647.00;4901553;29;20501;-74
2022/02/03 09:57:14;;;;;;;4.03;2.00;;;;;;;7.76;100.00;100652.00;4897865;29;20072;-71
2022/02/03 10:02:16;;;;;;;4.43;2.35;;;;;;;7.97;100.00;100651.91;4903119;29;20505;-74
2022/02/03 10:07:15;;;;;;;6.72;2.83;;;;;;;7.92;100.00;100652.91;4918947;29;20131;-71
2022/02/03 10:09:43;;;;;;;4.88;2.72;;;;;;;8.00;100.00;100651.22;4902351;29;20040;-73
2022/02/03 10:12:10;;;;;;;4.15;2.10;;;;;;;8.03;100.00;100650.56;4903035;29;20504;-73
2022/02/03 10:14:44;;;;;;;4.50;2.13;;;;;;;8.00;100.00;100641.28;4900434;29;20044;-71
2022/02/03 10:17:10;;;;;;;2.83;1.65;;;;;;;8.11;100.00;100645.06;4917528;29;20044;-70
2022/02/03 10:19:40;;;;;;;4.75;2.10;;;;;;;8.25;100.00;100641.25;4901532;29;20047;-72
2022/02/03 10:22:18;;;;;;;8.45;2.47;;;;;;;8.29;100.00;100645.59;4900638;29;20541;-72
2022/02/03 10:24:49;;;;;;;4.72;1.95;;;;;;;8.27;100.00;100634.44;4901805;29;20119;-71
2022/02/03 10:27:27;;;;;;;4.90;1.95;;;;;;;8.17;100.00;100635.66;4905600;29;20379;-74
2022/02/03 10:30:06;;;;;;;7.20;2.22;;;;;;;8.19;100.00;100640.69;4901277;29;20482;-71
2022/02/03 10:32:40;;;;;;;4.18;1.80;;;;;;;8.20;100.00;100631.53;4903654;29;20040;-71
2022/02/03 10:35:25;;;;;;;5.47;1.90;;;;;;;8.32;100.00;100625.38;4900519;29;20036;-71
2022/02/03 10:38:29;;;;;;;5.25;2.22;;;;;;;8.41;100.00;100621.44;4902716;29;20413;-72
2022/02/03 10:43:51;;;;;;;6.15;2.90;;;;;;;8.34;100.00;100615.88;4903564;29;20104;-71
2022/02/03 10:49:26;;;;;;;10.50;3.42;;;;;;;8.45;100.00;100611.59;4903225;29;20036;-71
2022/02/03 10:55:03;;;;;;;14.05;3.17;;;;;;;8.80;100.00;100601.81;4902166;29;20040;-71
2022/02/03 11:05:51;;;;;;;12.00;4.05;;;;;;;8.79;100.00;100594.88;4903905;29;20040;-71
2022/02/03 11:08:32;;;;;;;9.93;4.03;;;;;;;8.75;100.00;100594.00;4900366;29;20122;-73
2022/02/03 11:11:01;;;;;;;9.38;3.72;;;;;;;8.69;100.00;100602.66;4901854;29;20570;-73
2022/02/03 11:13:33;;;;;;;12.77;4.35;;;;;;;8.83;100.00;100593.06;4904045;29;20040;-71
2022/02/03 11:16:04;;;;;;;13.77;4.30;;;;;;;8.83;100.00;100598.44;4901464;29;20091;-71
2022/02/03 11:18:31;;;;;;;13.90;4.57;;;;;;;8.79;100.00;100594.06;4901344;29;20478;-72
2022/02/03 11:20:59;;;;;;;13.45;4.78;;;;;;;8.83;100.00;100595.75;4901951;29;20044;-72
2022/02/03 11:44:26;;;;;;;13.88;4.90;;;;;;;8.92;100.00;100580.25;4898559;29;20036;-71
2022/02/03 11:47:14;;;;;;;11.05;4.50;;;;;;;8.95;100.00;100573.41;4903957;29;20151;-74
2022/02/03 12:19:40;;;;;;;7.90;2.90;;;;;;;9.18;100.00;100534.06;4899393;29;20044;-72
2022/02/03 12:24:53;;;;;;;8.13;3.08;;;;;;;9.13;100.00;100528.97;4895598;29;20039;-72
2022/02/03 12:27:33;;;;;;;5.40;3.15;;;;;;;9.25;100.00;100525.41;4897016;29;20047;-72
2022/02/03 12:30:07;;;;;;;9.18;3.25;;;;;;;9.27;100.00;100525.84;4896905;29;20028;-72
2022/02/03 12:33:15;;;;;;;8.10;2.67;;;;;;;9.12;100.00;100526.66;4896132;29;20040;-74
2022/02/03 12:38:22;;;;;;;7.53;2.63;;;;;;;9.17;100.00;100527.16;4898248;29;20040;-72
2022/02/03 12:43:26;;;;;;;8.18;3.13;;;;;;;9.26;100.00;100522.38;4893332;29;20048;-73
2022/02/03 12:45:52;;;;;;;12.30;3.33;;;;;;;9.27;100.00;100526.59;4906717;29;20051;-72
2022/02/03 12:48:25;;;;;;;10.43;2.90;;;;;;;9.22;100.00;100520.72;4911122;29;20510;-72
2022/02/03 12:50:54;;;;;;;10.88;4.38;;;;;;;9.09;100.00;100528.91;4902539;29;20494;-71
2022/02/03 12:53:21;;;;;;;6.60;3.05;;;;;;;9.16;100.00;100522.09;4904856;29;20040;-75
2022/02/03 12:55:51;;;;;;;9.32;3.60;;;;;;;9.16;100.00;100522.09;4895679;29;20043;-73
2022/02/03 12:58:22;;;;;;;9.80;2.53;;;;;;;9.08;100.00;100519.25;4895569;29;20050;-73
2022/02/03 13:00:55;;;;;;;8.38;3.00;;;;;;;9.06;100.00;100510.78;4899546;29;20098;-73
2022/02/03 13:03:36;;;;;;;7.60;3.08;;;;;;;9.09;100.00;100501.25;4899268;29;20043;-73
2022/02/03 13:06:06;;;;;;;4.65;2.83;;;;;;;9.25;100.00;100498.53;4915417;29;20094;-73
2022/02/03 13:08:45;;;;;;;8.52;3.13;;;;;;;9.21;100.00;100503.06;4901198;29;20406;-72
2022/02/03 13:11:21;;;;;;;7.97;2.72;;;;;;;9.24;100.00;100499.66;4904515;29;20997;-73
2022/02/03 13:16:21;;;;;;;12.32;3.25;;;;;;;9.02;100.00;100480.38;4901012;29;20655;-72
2022/02/03 13:26:53;;;;;;;8.45;2.88;;;;;;;9.38;100.00;100490.03;4900430;29;20131;-73
2022/02/03 13:32:22;;;;;;;5.93;2.58;;;;;;;9.28;100.00;100476.34;4901830;29;20044;-72
2022/02/03 13:34:56;;;;;;;10.35;2.88;;;;;;;9.18;100.00;100464.22;4903100;29;20040;-72
2022/02/03 13:37:33;;;;;;;9.63;3.63;;;;;;;9.34;100.00;100464.19;4898604;29;20417;-73
2022/02/03 13:40:12;;;;;;;10.73;2.88;;;;;;;9.29;100.00;100469.84;4900805;29;20040;-73
2022/02/03 13:42:45;;;;;;;6.82;2.33;;;;;;;9.20;100.00;100469.25;4895409;29;20032;-73
2022/02/03 13:45:10;;;;;;;6.00;2.30;;;;;;;9.16;100.00;100463.78;4903157;29;20044;-72
2022/02/03 13:47:36;;;;;;;7.22;2.92;;;;;;;9.14;100.00;100463.38;4904997;29;20034;-73
2022/02/03 13:50:02;;;;;;;11.25;2.40;;;;;;;9.06;100.00;100472.38;4903023;29;20119;-73
2022/02/03 13:52:38;;;;;;;6.00;1.98;;;;;;;8.99;100.00;100461.50;4902677;29;20135;-72
2022/02/03 14:26:48;;;;;;;5.82;2.33;;;;;;;9.02;100.00;100434.69;4901521;29;20107;-71
2022/02/03 14:28:42;;;;;;;7.00;2.60;;;;;;;9.04;100.00;100434.34;4899006;29;20143;-73
2022/02/03 14:31:09;;;;;;;9.43;2.40;;;;;;;9.04;100.00;100428.97;4902417;29;20047;-72
2022/02/03 14:33:38;;;;;;;4.53;2.05;;;;;;;8.97;100.00;100423.47;4901004;29;20054;-72
2022/02/03 14:36:09;;;;;;;5.40;2.47;;;;;;;8.95;100.00;100421.13;4903870;29;20051;-72
2022/02/03 14:38:44;;;;;;;6.18;2.58;;;;;;;8.85;100.00;100418.19;4903176;29;20036;-72
2022/02/03 14:41:20;;;;;;;6.57;3.17;;;;;;;8.97;100.00;100416.19;4898551;29;20036;-73
2022/02/03 14:43:45;;;;;;;5.40;2.40;;;;;;;9.05;100.00;100417.13;4900009;29;20032;-71
2022/02/03 14:46:14;;;;;;;5.28;2.13;;;;;;;9.03;100.00;100417.47;4900260;29;20780;-71
2022/02/03 14:48:42;;;;;;;5.60;2.30;;;;;;;8.89;100.00;100419.84;4901442;29;20040;-73
2022/02/03 14:51:12;;;;;;;4.82;2.42;;;;;;;8.81;100.00;100407.38;4912030;29;20113;-72
2022/02/03 14:59:20;;;;;;;6.28;2.17;;;;;;;8.93;100.00;100395.75;4898847;29;20048;-72
2022/02/03 15:01:45;;;;;;;5.72;2.55;;;;;;;8.88;100.00;100401.38;4910912;29;20035;-72
2022/02/03 15:04:15;;;;;;;7.18;2.83;;;;;;;8.86;100.00;100396.38;4899695;29;20040;-72
2022/02/03 15:06:45;;;;;;;4.55;2.20;;;;;;;8.88;100.00;100385.28;4900557;29;20044;-71
2022/02/03 15:14:17;;;;;;;5.18;2.47;;;;;;;8.92;100.00;100378.09;4896673;29;20119;-72
2022/02/03 15:16:42;;;;;;;4.38;2.33;;;;;;;8.78;100.00;100378.53;4898715;29;20155;-72
2022/02/03 15:19:08;;;;;;;5.95;2.33;;;;;;;8.77;100.00;100376.97;4899020;29;20044;-72
2022/02/03 15:21:33;;;;;;;8.40;2.88;;;;;;;8.85;100.00;100367.97;4911828;29;20043;-71
2022/02/03 15:24:01;;;;;;;4.93;2.25;;;;;;;8.85;100.00;100367.97;4896655;29;20489;-72
2022/02/03 15:26:26;;;;;;;5.85;2.85;;;;;;;8.92;100.00;100380.78;4896982;29;20052;-71
2022/02/03 15:28:53;;;;;;;6.43;2.42;;;;;;;8.85;100.00;100373.31;4891673;29;20103;-72
2022/02/03 15:31:21;;;;;;;4.68;2.42;;;;;;;8.81;100.00;100372.47;4896694;29;20031;-73
2022/02/03 15:33:54;;;;;;;7.03;2.25;;;;;;;8.83;100.00;100367.53;4911616;29;20067;-72
2022/02/03 15:36:20;;;;;;;10.05;2.80;;;;;;;8.77;100.00;100371.59;4914546;29;20075;-72
2022/02/03 15:38:48;;;;;;;7.05;2.85;;;;;;;8.75;100.00;100373.84;4914180;29;20071;-72
2022/02/03 15:41:22;;;;;;;6.07;1.77;;;;;;;8.78;100.00;100377.75;4893012;29;20132;-72
2022/02/03 15:43:49;;;;;;;6.20;2.97;;;;;;;8.69;100.00;100371.81;4913254;29;20058;-72
2022/02/03 15:46:18;;;;;;;5.65;2.58;;;;;;;8.78;100.00;100373.19;4897973;29;20096;-73
2022/02/03 15:48:56;;;;;;;10.32;2.50;;;;;;;8.80;100.00;100370.94;4895435;29;20111;-72
2022/02/03 15:56:59;;;;;;;5.63;2.35;;;;;;;8.68;100.00;100362.19;4898015;29;20024;-72
2022/02/03 16:02:37;;;;;;;5.82;2.58;;;;;;;8.69;100.00;100364.50;4901820;29;20116;-72
2022/02/03 16:13:23;;;;;;;5.28;2.40;;;;;;;8.70;100.00;100362.63;4898816;29;20044;-72
2022/02/03 16:18:35;;;;;;;6.78;2.15;;;;;;;8.72;100.00;100363.03;4900558;29;20040;-72
2022/02/03 16:21:28;;;;;;;6.68;2.53;;;;;;;8.76;100.00;100353.16;4899402;29;20074;-72
2022/02/03 16:27:00;;;;;;;5.13;2.53;;;;;;;8.83;100.00;100369.44;4895179;29;20036;-72
2022/02/03 16:51:28;;;;;;;3.63;1.98;;;;;;;8.48;100.00;100329.13;4898502;29;20070;-71
2022/02/03 16:53:53;;;;;;;5.82;2.42;;;;;;;8.56;100.00;100341.59;4901799;29;20108;-72
2022/02/03 16:56:22;;;;;;;6.10;2.65;;;;;;;8.55;100.00;100326.63;4915983;29;20044;-71
2022/02/03 16:58:48;;;;;;;4.40;2.50;;;;;;;8.56;100.00;100332.75;4901277;29;20137;-72
2022/02/03 17:01:14;;;;;;;6.28;2.22;;;;;;;8.62;100.00;100332.16;4899621;29;21213;-73
2022/02/03 17:03:39;;;;;;;6.97;2.45;;;;;;;8.54;100.00;100340.38;4902056;29;20115;-71
2022/02/03 17:06:06;;;;;;;6.68;2.38;;;;;;;8.57;100.00;100335.13;4914542;29;20039;-71
2022/02/03 17:08:32;;;;;;;6.13;2.25;;;;;;;8.56;100.00;100332.75;4902483;29;20463;-71
2022/02/03 17:10:57;;;;;;;7.43;3.20;;;;;;;8.50;100.00;100331.47;4900530;29;20119;-72
2022/02/03 17:13:22;;;;;;;5.55;2.58;;;;;;;8.55;100.00;100331.22;4903245;29;20048;-72
2022/02/03 17:15:48;;;;;;;7.38;2.97;;;;;;;8.69;100.00;100332.31;4903612;29;20478;-71
2022/02/03 17:18:13;;;;;;;6.00;2.83;;;;;;;8.59;100.00;100334.75;4903499;29;20043;-70
2022/02/03 17:20:41;;;;;;;6.68;2.28;;;;;;;8.64;100.00;100334.47;4902466;29;20511;-71
2022/02/03 17:23:09;;;;;;;6.40;2.90;;;;;;;8.57;100.00;100340.50;4916656;29;20075;-71
2022/02/03 17:25:46;;;;;;;7.97;2.53;;;;;;;8.53;100.00;100334.25;4900432;29;20598;-72
2022/02/03 17:30:56;;;;;;;7.35;2.35;;;;;;;8.52;100.00;100324.63;4902898;29;20051;-71
2022/02/03 18:10:48;;;;;;;7.47;2.90;;;;;;;8.44;100.00;100314.84;4897826;29;20028;-71
2022/02/03 18:30:00;;;;;;;6.07;2.42;;;;;;;8.50;100.00;100304.63;4919439;29;20040;-72
2022/02/03 18:32:41;;;;;;;3.97;2.08;;;;;;;8.65;100.00;100306.53;4903559;29;20036;-71
2022/02/03 18:51:23;;;;;;;7.88;2.78;;;;;;;8.74;100.00;100281.03;4903238;29;20103;-72
2022/02/03 18:59:03;;;;;;;8.68;3.38;;;;;;;8.46;100.00;100295.75;4901754;29;20749;-73
2022/02/03 19:10:06;;;;;;;5.78;2.25;;;;;;;8.52;100.00;100267.50;4915458;29;20121;-71
2022/02/03 20:04:46;;;;;;;10.00;3.88;;;;;;;8.48;100.00;100267.44;4900693;29;20382;-71
2022/02/03 20:09:23;;;;;;;6.90;2.45;;;;;;;8.40;100.00;100267.63;4899503;29;20035;-71
2022/02/03 20:11:50;;;;;;;8.60;3.65;;;;;;;8.39;100.00;100266.84;4904921;29;20036;-71
2022/02/03 20:14:15;;;;;;;7.75;3.58;;;;;;;8.35;100.00;100259.84;4898430;29;20035;-71
2022/02/03 20:16:42;;;;;;;11.00;4.40;;;;;;;8.41;100.00;100267.28;4899502;29;20151;-71
2022/02/03 20:19:08;;;;;;;6.00;2.78;;;;;;;8.36;100.00;100256.81;4902869;29;20493;-71
2022/02/03 20:21:36;;;;;;;9.30;3.03;;;;;;;8.28;100.00;100267.72;4899917;29;20032;-71
2022/02/03 20:24:04;;;;;;;10.50;3.92;;;;;;;8.30;100.00;100266.25;4898996;29;20066;-71
2022/02/03 20:26:30;;;;;;;10.25;3.75;;;;;;;8.35;100.00;100262.53;4901174;29;20044;-72
2022/02/03 20:28:55;;;;;;;10.77;3.60;;;;;;;8.35;100.00;100265.19;4901742;29;20048;-71
2022/02/03 20:31:21;;;;;;;10.75;4.65;;;;;;;8.34;100.00;100267.13;4901306;29;20629;-71
2022/02/03 20:33:46;;;;;;;11.68;3.33;;;;;;;8.29;100.00;100259.34;4900215;29;20036;-71
2022/02/03 20:36:11;;;;;;;6.85;3.08;;;;;;;8.36;100.00;100248.78;4901408;29;20050;-71
2022/02/03 20:38:37;;;;;;;10.38;3.95;;;;;;;8.39;100.00;100250.75;4901763;29;20794;-71
2022/02/03 20:41:02;;;;;;;8.60;3.53;;;;;;;8.38;100.00;100245.75;4897921;29;20035;-72
2022/02/03 20:43:28;;;;;;;8.00;3.38;;;;;;;8.46;100.00;100258.19;4897888;29;20142;-72
2022/02/03 20:45:53;;;;;;;12.07;4.22;;;;;;;8.33;100.00;100254.81;4900277;29;20028;-72
2022/02/03 20:48:19;;;;;;;11.38;3.33;;;;;;;8.28;100.00;100263.16;4899701;29;20056;-72
2022/02/03 20:50:46;;;;;;;9.45;3.63;;;;;;;8.26;100.00;100257.34;4897990;29;20042;-71
2022/02/03 20:53:13;;;;;;;8.82;3.08;;;;;;;8.20;100.00;100250.66;4898169;29;20120;-72
2022/02/03 20:55:41;;;;;;;9.70;3.55;;;;;;;8.29;100.00;100250.50;4900903;29;20040;-71
2022/02/03 20:58:11;;;;;;;11.18;3.33;;;;;;;8.33;100.00;100241.41;4914171;29;20032;-71
2022/02/03 21:00:47;;;;;;;7.15;2.90;;;;;;;8.41;100.00;100245.03;4899820;29;20048;-71
2022/02/03 21:03:22;;;;;;;7.57;2.65;;;;;;;8.49;100.00;100241.38;4902798;29;20079;-71
2022/02/03 21:05:48;;;;;;;8.52;2.95;;;;;;;8.47;100.00;100239.06;4897874;29;21078;-71
2022/02/03 21:08:17;;;;;;;11.23;3.55;;;;;;;8.43;100.00;100238.19;4895355;29;20095;-72
2022/02/03 21:10:42;;;;;;;9.05;3.42;;;;;;;8.39;100.00;100237.34;4902727;29;20028;-72
2022/02/03 21:13:07;;;;;;;8.35;3.05;;;;;;;8.41;100.00;100242.34;4905069;29;20043;-71
2022/02/03 21:15:36;;;;;;;9.98;3.63;;;;;;;8.41;100.00;100235.09;4907582;29;20037;-71
2022/02/03 21:18:07;;;;;;;8.77;4.05;;;;;;;8.41;100.00;100239.66;4906637;29;20151;-71
2022/02/03 21:20:35;;;;;;;9.15;3.13;;;;;;;8.45;100.00;100235.94;4904766;29;20409;-71
2022/02/03 21:23:00;;;;;;;7.75;3.13;;;;;;;8.38;100.00;100233.09;4904641;29;20039;-71
2022/02/03 21:28:06;;;;;;;9.48;4.03;;;;;;;8.36;100.00;100227.31;4918741;29;20036;-72
2022/02/03 21:30:32;;;;;;;11.95;3.72;;;;;;;8.30;100.00;100234.06;4902230;29;20048;-71
2022/02/03 21:32:57;;;;;;;9.77;3.50;;;;;;;8.30;100.00;100230.63;4905200;29;20039;-72
2022/02/03 21:35:23;;;;;;;9.38;3.80;;;;;;;8.32;100.00;100221.09;4910240;29;20804;-72
2022/02/03 21:37:50;;;;;;;8.13;3.55;;;;;;;8.34;100.00;100229.56;4907044;29;20102;-72
2022/02/03 21:40:17;;;;;;;12.00;3.22;;;;;;;8.41;100.00;100224.34;4906121;29;20048;-72
2022/02/03 21:42:43;;;;;;;9.27;3.90;;;;;;;8.35;100.00;100230.31;4919386;29;20028;-72
2022/02/03 21:45:08;;;;;;;7.03;3.55;;;;;;;8.27;100.00;100217.88;4906645;29;20055;-72
2022/02/03 21:47:35;;;;;;;7.38;3.03;;;;;;;8.49;100.00;100233.31;4908535;29;20119;-72
2022/02/03 21:50:01;;;;;;;7.38;2.78;;;;;;;8.37;100.00;100223.50;4935308;29;20028;-72
2022/02/03 21:52:35;;;;;;;10.45;3.88;;;;;;;8.37;100.00;100228.06;4923872;29;20039;-72
2022/02/03 21:55:02;;;;;;;6.25;2.85;;;;;;;8.41;100.00;100232.41;4915164;29;20039;-72
2022/02/03 21:57:28;;;;;;;8.07;3.72;;;;;;;8.35;100.00;100227.66;4924815;29;20043;-72
2022/02/03 21:59:55;;;;;;;9.85;3.88;;;;;;;8.29;100.00;100231.72;4906451;29;20032;-72
2022/02/03 22:02:20;;;;;;;8.18;3.75;;;;;;;8.29;100.00;100232.50;4906081;29;20125;-72
2022/02/03 22:04:46;;;;;;;7.97;3.97;;;;;;;8.33;100.00;100233.38;4906198;29;20032;-72
2022/02/03 22:07:12;;;;;;;10.10;3.78;;;;;;;8.33;100.00;100227.22;4912321;29;20067;-72
2022/02/03 22:09:39;;;;;;;9.68;3.67;;;;;;;8.42;100.00;100233.94;4906693;29;20094;-72
2022/02/03 22:12:06;;;;;;;10.93;3.50;;;;;;;8.35;100.00;100231.13;4923369;29;20055;-72
2022/02/03 22:14:32;;;;;;;11.23;3.25;;;;;;;8.32;100.00;100215.72;4923590;29;20119;-72